createdAt,value
2018-08-23T00:00:42.710Z,31.10
2018-08-23T00:03:22.266Z,30.50
2018-08-23T00:05:57.278Z,27.10
2018-08-23T00:08:31.517Z,27.17
2018-08-23T00:11:05.830Z,34.43
2018-08-23T00:13:44.969Z,31.27
2018-08-23T00:16:32.365Z,30.93
2018-08-23T00:19:06.517Z,31.10
2018-08-23T00:21:41.456Z,31.53
2018-08-23T00:24:22.595Z,32.60
2018-08-23T00:26:59.480Z,34.87
2018-08-23T00:29:33.905Z,34.53
2018-08-23T00:32:08.554Z,31.03
2018-08-23T00:34:42.693Z,32.00
2018-08-23T00:37:16.946Z,32.57
2018-08-23T00:39:51.218Z,33.27
2018-08-23T00:42:25.491Z,32.30
2018-08-23T00:45:01.039Z,34.27
2018-08-23T00:47:35.250Z,28.33
2018-08-23T00:50:09.583Z,30.87
2018-08-23T00:52:44.993Z,35.90
2018-08-23T00:55:28.640Z,36.63
2018-08-23T00:58:02.768Z,32.17
2018-08-23T01:00:36.983Z,35.23
2018-08-23T01:03:11.243Z,33.43
2018-08-23T01:05:46.106Z,32.17
2018-08-23T01:08:25.873Z,36.27
2018-08-23T01:11:00.128Z,32.53
2018-08-23T01:13:34.689Z,35.10
2018-08-23T01:16:09.014Z,29.93
2018-08-23T01:18:43.434Z,32.33
2018-08-23T01:21:17.622Z,28.60
2018-08-23T01:23:51.918Z,30.53
2018-08-23T01:26:26.235Z,30.00
2018-08-23T01:29:00.507Z,33.87
2018-08-23T01:31:34.843Z,30.97
2018-08-23T01:34:09.151Z,31.40
2018-08-23T01:36:43.521Z,32.37
2018-08-23T01:39:17.835Z,29.87
2018-08-23T01:41:52.206Z,31.90
2018-08-23T01:44:30.825Z,29.47
2018-08-23T01:47:05.195Z,24.73
2018-08-23T01:49:39.483Z,26.20
2018-08-23T01:52:13.695Z,26.97
2018-08-23T01:54:47.998Z,28.00
2018-08-23T01:57:26.578Z,29.63
2018-08-23T02:00:01.048Z,29.20
2018-08-23T02:02:35.306Z,28.00
2018-08-23T02:05:09.695Z,31.03
2018-08-23T02:07:43.978Z,29.33
2018-08-23T02:10:18.289Z,29.73
2018-08-23T02:12:53.854Z,29.40
2018-08-23T02:15:35.768Z,25.43
2018-08-23T02:18:10.053Z,25.77
2018-08-23T02:20:44.233Z,28.87
2018-08-23T02:23:18.489Z,29.10
2018-08-23T02:25:52.865Z,29.13
2018-08-23T02:28:27.122Z,32.93
2018-08-23T02:31:01.399Z,31.60
2018-08-23T02:33:35.822Z,30.07
2018-08-23T02:36:16.831Z,28.83
2018-08-23T02:38:55.467Z,27.37
2018-08-23T02:41:29.895Z,29.13
2018-08-23T02:44:04.215Z,28.80
2018-08-23T02:46:38.519Z,28.03
2018-08-23T02:49:14.779Z,27.67
2018-08-23T02:51:51.455Z,31.77
2018-08-23T02:54:25.646Z,33.47
2018-08-23T02:57:00.629Z,35.93
2018-08-23T02:59:34.877Z,31.93
2018-08-23T03:02:13.255Z,35.63
2018-08-23T03:04:47.458Z,39.30
2018-08-23T03:07:22.682Z,40.23
2018-08-23T03:09:58.934Z,38.10
2018-08-23T03:12:33.086Z,38.73
2018-08-23T03:15:07.363Z,35.60
2018-08-23T03:17:44.971Z,36.67
2018-08-23T03:20:19.194Z,31.57
2018-08-23T03:22:54.218Z,35.50
2018-08-23T03:25:28.562Z,33.13
2018-08-23T03:28:03.026Z,37.53
2018-08-23T03:30:37.396Z,35.73
2018-08-23T03:33:11.558Z,34.27
2018-08-23T03:35:45.909Z,36.00
2018-08-23T03:38:20.330Z,36.87
2018-08-23T03:40:54.610Z,37.80
2018-08-23T03:43:28.892Z,42.53
2018-08-23T03:46:03.215Z,38.73
2018-08-23T03:48:37.409Z,36.33
2018-08-23T03:51:11.794Z,39.90
2018-08-23T03:53:51.497Z,42.30
2018-08-23T03:56:25.633Z,39.10
2018-08-23T03:58:59.931Z,35.60
2018-08-23T04:01:34.109Z,36.07
2018-08-23T04:04:08.382Z,37.37
2018-08-23T04:06:42.566Z,35.77
2018-08-23T04:09:17.017Z,38.20
2018-08-23T04:11:51.262Z,38.67
2018-08-23T04:14:25.554Z,40.47
2018-08-23T04:16:59.823Z,35.90
2018-08-23T04:19:39.510Z,43.10
2018-08-23T04:22:13.813Z,40.03
2018-08-23T04:24:53.766Z,36.63
2018-08-23T04:27:28.002Z,35.77
2018-08-23T04:30:02.281Z,38.23
2018-08-23T04:32:42.801Z,35.90
2018-08-23T04:35:20.307Z,36.37
2018-08-23T04:37:54.614Z,41.13
2018-08-23T04:40:28.842Z,39.97
2018-08-23T04:43:03.202Z,43.97
2018-08-23T04:45:37.522Z,40.40
2018-08-23T04:48:11.840Z,44.30
2018-08-23T04:50:46.134Z,40.70
2018-08-23T04:53:20.469Z,39.73
2018-08-23T04:55:54.874Z,41.43
2018-08-23T04:58:29.220Z,41.03
2018-08-23T05:01:03.557Z,39.23
2018-08-23T05:03:37.758Z,39.27
2018-08-23T05:06:11.998Z,40.23
2018-08-23T05:08:46.391Z,43.13
2018-08-23T05:11:20.809Z,46.33
2018-08-23T05:13:55.221Z,50.90
2018-08-23T05:16:29.394Z,52.70
2018-08-23T05:19:03.698Z,59.83
2018-08-23T05:21:37.970Z,57.07
2018-08-23T05:24:13.588Z,57.97
2018-08-23T05:26:47.906Z,58.03
2018-08-23T05:29:22.186Z,59.50
2018-08-23T05:31:56.306Z,57.27
2018-08-23T05:34:30.719Z,60.80
2018-08-23T05:37:05.916Z,51.87
2018-08-23T05:39:49.150Z,58.93
2018-08-23T05:42:35.393Z,65.90
2018-08-23T05:45:09.718Z,50.80
2018-08-23T05:47:44.149Z,54.20
2018-08-23T05:50:22.767Z,54.97
2018-08-23T05:52:56.889Z,48.20
2018-08-23T05:55:31.230Z,48.83
2018-08-23T05:58:13.837Z,48.97
2018-08-23T06:00:48.103Z,44.87
2018-08-23T06:03:22.286Z,50.93
2018-08-23T06:05:57.074Z,49.13
2018-08-23T06:08:31.427Z,53.83
2018-08-23T06:11:10.014Z,57.40
2018-08-23T06:13:44.299Z,59.70
2018-08-23T06:16:18.595Z,61.80
2018-08-23T06:18:52.915Z,62.23
2018-08-23T06:21:27.175Z,66.90
2018-08-23T06:24:03.731Z,63.63
2018-08-23T06:26:45.068Z,65.17
2018-08-23T06:29:29.877Z,65.23
2018-08-23T06:32:06.667Z,66.90
2018-08-23T06:34:47.013Z,66.13
2018-08-23T06:37:22.304Z,69.50
2018-08-23T06:39:56.672Z,68.00
2018-08-23T06:42:45.176Z,64.83
2018-08-23T06:45:19.355Z,65.47
2018-08-23T06:47:58.031Z,68.77
2018-08-23T06:50:43.194Z,66.93
2018-08-23T06:53:17.394Z,67.07
2018-08-23T06:55:51.708Z,66.60
2018-08-23T06:58:25.993Z,64.37
2018-08-23T07:01:01.659Z,65.57
2018-08-23T07:03:40.302Z,64.90
2018-08-23T07:06:14.574Z,60.03
2018-08-23T07:08:48.795Z,64.00
2018-08-23T07:11:23.010Z,67.43
2018-08-23T07:14:02.637Z,57.90
2018-08-23T07:16:36.865Z,59.80
2018-08-23T07:19:31.345Z,65.23
2018-08-23T07:22:05.674Z,57.77
2018-08-23T07:24:43.570Z,58.20
2018-08-23T07:27:18.817Z,62.93
2018-08-23T07:29:54.873Z,57.20
2018-08-23T07:32:30.123Z,62.77
2018-08-23T07:35:10.670Z,64.53
2018-08-23T07:37:46.441Z,58.60
2018-08-23T07:40:22.805Z,53.80
2018-08-23T07:42:57.068Z,59.23
2018-08-23T07:45:31.365Z,58.37
2018-08-23T07:48:05.730Z,56.43
2018-08-23T07:50:40.042Z,57.10
2018-08-23T07:53:14.510Z,55.67
2018-08-23T07:55:48.679Z,59.53
2018-08-23T07:58:22.953Z,55.43
2018-08-23T08:00:57.239Z,52.50
2018-08-23T08:03:31.415Z,63.17
2018-08-23T08:06:05.714Z,54.20
2018-08-23T08:08:42.124Z,55.67
2018-08-23T08:11:16.558Z,52.67
2018-08-23T08:13:56.130Z,53.63
2018-08-23T08:16:32.453Z,52.90
2018-08-23T08:19:07.098Z,56.37
2018-08-23T08:21:41.476Z,47.67
2018-08-23T08:24:15.674Z,51.37
2018-08-23T08:26:49.982Z,50.00
2018-08-23T08:29:29.850Z,45.13
2018-08-23T08:32:04.158Z,45.87
2018-08-23T08:34:43.715Z,44.30
2018-08-23T08:37:17.963Z,51.97
2018-08-23T08:39:52.300Z,50.97
2018-08-23T08:42:32.138Z,49.33
2018-08-23T08:45:10.240Z,48.77
2018-08-23T08:47:45.692Z,44.93
2018-08-23T08:50:20.060Z,43.60
2018-08-23T08:52:54.413Z,47.23
2018-08-23T08:55:28.698Z,50.73
2018-08-23T08:58:03.134Z,48.63
2018-08-23T09:00:49.713Z,56.37
2018-08-23T09:03:24.300Z,57.67
2018-08-23T09:05:58.568Z,60.20
2018-08-23T09:08:33.127Z,60.80
2018-08-23T09:11:07.534Z,54.13
2018-08-23T09:13:47.081Z,57.87
2018-08-23T09:16:21.750Z,56.53
2018-08-23T09:19:00.334Z,57.73
2018-08-23T09:21:34.503Z,53.20
2018-08-23T09:24:24.942Z,54.27
2018-08-23T09:26:59.119Z,54.00
2018-08-23T09:29:35.473Z,60.30
2018-08-23T09:32:20.860Z,59.83
2018-08-23T09:34:59.250Z,61.37
2018-08-23T09:37:36.431Z,63.00
2018-08-23T09:40:11.244Z,63.03
2018-08-23T09:42:45.473Z,60.67
2018-08-23T09:45:19.819Z,64.80
2018-08-23T09:47:54.228Z,69.47
2018-08-23T09:50:30.655Z,65.07
2018-08-23T09:53:37.545Z,66.73
2018-08-23T09:56:16.447Z,69.87
2018-08-23T09:58:51.883Z,63.77
2018-08-23T10:01:31.562Z,61.27
2018-08-23T10:04:11.255Z,64.60
2018-08-23T10:07:22.995Z,66.97
2018-08-23T10:10:02.791Z,66.37
2018-08-23T10:12:42.330Z,70.30
2018-08-23T10:15:22.995Z,75.93
2018-08-23T10:18:02.558Z,67.47
2018-08-23T10:20:43.710Z,67.07
2018-08-23T10:23:21.860Z,68.40
2018-08-23T10:25:57.306Z,66.70
2018-08-23T10:28:37.022Z,64.63
2018-08-23T10:31:11.221Z,59.17
2018-08-23T10:33:45.474Z,67.77
2018-08-23T10:36:19.990Z,62.97
2018-08-23T10:38:54.206Z,65.00
2018-08-23T10:41:28.495Z,62.13
2018-08-23T10:44:02.671Z,62.47
2018-08-23T10:46:42.349Z,64.87
2018-08-23T10:49:16.547Z,61.77
2018-08-23T10:51:50.862Z,55.13
2018-08-23T10:54:25.174Z,61.70
2018-08-23T10:56:59.667Z,57.43
2018-08-23T10:59:33.882Z,49.13
2018-08-23T11:02:08.328Z,52.97
2018-08-23T11:04:42.723Z,47.03
2018-08-23T11:07:17.014Z,47.80
2018-08-23T11:09:56.803Z,40.87
2018-08-23T11:12:36.361Z,41.43
2018-08-23T11:15:15.886Z,41.70
2018-08-23T11:17:55.339Z,40.70
2018-08-23T11:20:30.998Z,48.20
2018-08-23T11:23:05.404Z,46.73
2018-08-23T11:25:39.693Z,56.20
2018-08-23T11:28:19.329Z,46.77
2018-08-23T11:30:54.162Z,41.97
2018-08-23T11:33:28.430Z,51.30
2018-08-23T11:36:02.697Z,41.77
2018-08-23T11:38:37.027Z,42.50
2018-08-23T11:41:11.443Z,42.60
2018-08-23T11:43:45.635Z,42.23
2018-08-23T11:46:21.308Z,38.17
2018-08-23T11:48:55.546Z,40.73
2018-08-23T11:51:29.865Z,42.53
2018-08-23T11:54:04.018Z,42.73
2018-08-23T11:56:38.406Z,38.97
2018-08-23T11:59:12.908Z,34.53
2018-08-23T12:01:47.123Z,34.43
2018-08-23T12:04:21.430Z,32.67
2018-08-23T12:06:56.489Z,33.23
2018-08-23T12:09:31.637Z,31.27
2018-08-23T12:12:05.835Z,35.23
2018-08-23T12:14:40.056Z,31.93
2018-08-23T12:17:14.414Z,34.80
2018-08-23T12:19:48.595Z,28.80
2018-08-23T12:22:27.035Z,24.27
2018-08-23T12:25:01.241Z,24.83
2018-08-23T12:27:36.484Z,25.87
2018-08-23T12:30:10.802Z,30.97
2018-08-23T12:32:45.132Z,27.43
2018-08-23T12:35:19.394Z,27.07
2018-08-23T12:38:00.863Z,23.00
2018-08-23T12:40:40.809Z,15.07
2018-08-23T12:43:14.959Z,13.37
2018-08-23T12:45:49.303Z,14.47
2018-08-23T12:48:23.650Z,14.60
2018-08-23T12:50:58.174Z,16.43
2018-08-23T12:53:32.479Z,14.20
2018-08-23T12:56:06.842Z,12.30
2018-08-23T12:58:41.196Z,14.80
2018-08-23T13:01:15.446Z,12.37
2018-08-23T13:03:49.725Z,9.90
2018-08-23T13:06:23.934Z,9.80
2018-08-23T13:08:58.098Z,9.23
2018-08-23T13:11:32.485Z,10.23
2018-08-23T13:14:06.902Z,10.03
2018-08-23T13:16:41.170Z,13.13
2018-08-23T13:19:15.682Z,11.73
2018-08-23T13:21:55.047Z,12.53
2018-08-23T13:24:29.569Z,12.27
2018-08-23T13:27:03.850Z,10.07
2018-08-23T13:29:38.268Z,11.87
2018-08-23T13:32:12.523Z,9.40
2018-08-23T13:34:46.745Z,9.07
2018-08-23T13:37:21.041Z,8.90
2018-08-23T13:39:55.803Z,11.80
2018-08-23T13:42:30.084Z,9.17
2018-08-23T13:45:04.319Z,8.90
2018-08-23T13:47:38.818Z,9.93
2018-08-23T13:50:13.082Z,10.30
2018-08-23T13:52:47.481Z,9.63
2018-08-23T13:55:21.692Z,9.27
2018-08-23T13:57:55.987Z,8.60
2018-08-23T14:00:35.578Z,9.27
2018-08-23T14:03:10.571Z,10.13
2018-08-23T14:05:44.706Z,10.50
2018-08-23T14:08:19.108Z,10.83
2018-08-23T14:10:53.350Z,10.63
2018-08-23T14:13:27.473Z,11.63
2018-08-23T14:16:04.101Z,12.17
2018-08-23T14:18:38.505Z,12.70
2018-08-23T14:21:12.826Z,13.20
2018-08-23T14:23:47.158Z,16.23
2018-08-23T14:26:21.445Z,17.90
2018-08-23T14:28:55.842Z,15.70
2018-08-23T14:31:30.137Z,16.87
2018-08-23T14:34:04.541Z,16.77
2018-08-23T14:36:38.797Z,14.70
2018-08-23T14:39:13.079Z,14.13
2018-08-23T14:41:47.367Z,15.60
2018-08-23T14:44:21.720Z,17.37
2018-08-23T14:47:01.279Z,16.47
2018-08-23T14:49:36.059Z,15.67
2018-08-23T14:52:10.427Z,18.30
2018-08-23T14:54:44.615Z,18.17
2018-08-23T14:57:24.338Z,16.13
2018-08-23T14:59:58.546Z,16.77
2018-08-23T15:02:32.878Z,18.23
2018-08-23T15:05:07.266Z,18.20
2018-08-23T15:07:41.529Z,18.30
2018-08-23T15:10:15.899Z,18.87
2018-08-23T15:12:50.132Z,18.07
2018-08-23T15:15:29.890Z,18.43
2018-08-23T15:18:04.095Z,15.17
2018-08-23T15:20:38.475Z,18.57
2018-08-23T15:23:12.830Z,18.53
2018-08-23T15:25:47.170Z,17.63
2018-08-23T15:28:21.578Z,16.77
2018-08-23T15:30:55.907Z,15.17
2018-08-23T15:33:30.046Z,15.97
2018-08-23T15:36:04.277Z,16.47
2018-08-23T15:38:38.574Z,17.50
2018-08-23T15:41:12.759Z,15.33
2018-08-23T15:43:47.056Z,15.23
2018-08-23T15:46:21.198Z,15.77
2018-08-23T15:48:55.667Z,15.07
2018-08-23T15:51:29.960Z,13.07
2018-08-23T15:54:04.161Z,13.07
2018-08-23T15:56:39.059Z,14.20
2018-08-23T15:59:13.282Z,12.20
2018-08-23T16:01:47.542Z,12.10
2018-08-23T16:04:21.927Z,11.67
2018-08-23T16:06:56.190Z,12.83
2018-08-23T16:09:30.470Z,11.13
2018-08-23T16:12:08.359Z,11.10
2018-08-23T16:14:42.912Z,9.70
2018-08-23T16:17:22.426Z,10.07
2018-08-23T16:20:02.067Z,10.30
2018-08-23T16:22:36.438Z,10.20
2018-08-23T16:25:10.886Z,10.33
2018-08-23T16:27:45.263Z,8.43
2018-08-23T16:30:19.726Z,8.83
2018-08-23T16:32:54.060Z,8.60
2018-08-23T16:35:28.381Z,12.17
2018-08-23T16:38:02.962Z,10.80
2018-08-23T16:40:37.303Z,9.00
2018-08-23T16:43:11.546Z,8.60
2018-08-23T16:45:45.841Z,8.47
2018-08-23T16:48:20.139Z,7.87
2018-08-23T16:50:54.511Z,8.70
2018-08-23T16:53:28.939Z,7.33
2018-08-23T16:56:03.345Z,10.23
2018-08-23T16:58:37.550Z,7.87
2018-08-23T17:01:11.768Z,8.33
2018-08-23T17:03:50.267Z,10.37
2018-08-23T17:06:25.922Z,7.30
2018-08-23T17:09:00.123Z,12.03
2018-08-23T17:11:34.309Z,7.10
2018-08-23T17:14:08.578Z,9.80
2018-08-23T17:16:48.247Z,11.33
2018-08-23T17:19:22.520Z,7.83
2018-08-23T17:21:56.828Z,9.23
2018-08-23T17:24:31.269Z,7.80
2018-08-23T17:27:05.510Z,8.20
2018-08-23T17:29:39.790Z,8.03
2018-08-23T17:32:14.074Z,9.53
2018-08-23T17:34:48.303Z,7.47
2018-08-23T17:37:22.582Z,8.20
2018-08-23T17:39:56.828Z,8.67
2018-08-23T17:42:36.670Z,8.97
2018-08-23T17:45:11.322Z,9.17
2018-08-23T17:47:45.642Z,8.37
2018-08-23T17:50:20.019Z,8.80
2018-08-23T17:52:54.340Z,8.37
2018-08-23T17:55:28.648Z,8.70
2018-08-23T17:58:02.829Z,8.53
2018-08-23T18:00:37.143Z,8.73
2018-08-23T18:03:11.385Z,10.43
2018-08-23T18:05:45.718Z,8.63
2018-08-23T18:08:20.122Z,8.40
2018-08-23T18:10:54.289Z,9.23
2018-08-23T18:13:28.751Z,15.67
2018-08-23T18:16:08.311Z,15.77
2018-08-23T18:18:42.678Z,19.13
2018-08-23T18:21:16.884Z,19.03
2018-08-23T18:23:51.163Z,19.80
2018-08-23T18:26:25.415Z,22.27
2018-08-23T18:28:59.806Z,20.83
2018-08-23T18:31:35.002Z,22.80
2018-08-23T18:34:09.466Z,21.73
2018-08-23T18:36:43.775Z,24.27
2018-08-23T18:39:17.914Z,21.23
2018-08-23T18:41:52.157Z,26.17
2018-08-23T18:44:26.394Z,24.27
2018-08-23T18:47:00.995Z,21.27
2018-08-23T18:49:35.306Z,21.40
2018-08-23T18:52:09.650Z,23.60
2018-08-23T18:54:43.982Z,22.90
2018-08-23T18:57:18.395Z,23.57
2018-08-23T18:59:52.787Z,22.63
2018-08-23T19:02:26.899Z,27.63
2018-08-23T19:05:01.211Z,19.50
2018-08-23T19:07:40.303Z,25.27
2018-08-23T19:10:14.642Z,22.03
2018-08-23T19:12:48.861Z,22.03
2018-08-23T19:15:28.517Z,20.27
2018-08-23T19:18:02.702Z,22.27
2018-08-23T19:20:37.028Z,18.10
2018-08-23T19:23:11.327Z,20.00
2018-08-23T19:25:45.630Z,20.87
2018-08-23T19:28:19.901Z,17.67
2018-08-23T19:30:54.226Z,19.07
2018-08-23T19:33:28.507Z,19.63
2018-08-23T19:36:02.634Z,21.90
2018-08-23T19:38:37.029Z,18.40
2018-08-23T19:41:11.565Z,21.63
2018-08-23T19:43:46.021Z,17.33
2018-08-23T19:46:25.690Z,17.53
2018-08-23T19:49:05.283Z,20.50
2018-08-23T19:51:39.499Z,20.10
2018-08-23T19:54:13.814Z,22.03
2018-08-23T19:56:48.087Z,20.77
2018-08-23T19:59:22.563Z,21.80
2018-08-23T20:01:56.974Z,20.00
2018-08-23T20:04:31.442Z,18.03
2018-08-23T20:07:05.927Z,18.83
2018-08-23T20:09:40.390Z,20.37
2018-08-23T20:12:14.562Z,18.20
2018-08-23T20:14:48.897Z,19.77
2018-08-23T20:17:23.194Z,17.80
2018-08-23T20:19:57.458Z,20.30
2018-08-23T20:22:31.909Z,19.90
2018-08-23T20:25:06.147Z,18.00
2018-08-23T20:27:40.491Z,21.00
2018-08-23T20:30:14.806Z,19.40
2018-08-23T20:32:49.173Z,19.50
2018-08-23T20:35:23.668Z,17.60
2018-08-23T20:37:57.825Z,18.10
2018-08-23T20:40:32.142Z,19.57
2018-08-23T20:43:06.403Z,21.77
2018-08-23T20:45:40.683Z,19.90
2018-08-23T20:48:15.910Z,19.93
2018-08-23T20:50:50.320Z,21.37
2018-08-23T20:53:24.500Z,19.13
2018-08-23T20:55:58.763Z,18.53
2018-08-23T20:58:33.186Z,23.20
2018-08-23T21:01:07.523Z,19.57
2018-08-23T21:03:41.928Z,23.87
2018-08-23T21:06:16.191Z,19.17
2018-08-23T21:08:50.451Z,20.63
2018-08-23T21:11:24.894Z,18.37
2018-08-23T21:13:59.214Z,19.63
2018-08-23T21:16:33.627Z,20.33
2018-08-23T21:19:08.190Z,22.30
2018-08-23T21:21:42.319Z,24.13
2018-08-23T21:24:16.578Z,21.33
2018-08-23T21:26:50.938Z,24.57
2018-08-23T21:29:25.232Z,19.40
2018-08-23T21:31:59.481Z,23.30
2018-08-23T21:34:33.798Z,21.73
2018-08-23T21:37:08.142Z,22.03
2018-08-23T21:39:42.538Z,20.93
2018-08-23T21:42:16.867Z,19.10
2018-08-23T21:44:51.211Z,19.50
2018-08-23T21:47:25.478Z,19.43
2018-08-23T21:49:59.837Z,21.07
2018-08-23T21:52:34.318Z,16.17
2018-08-23T21:55:08.790Z,24.33
2018-08-23T21:57:43.119Z,22.23
2018-08-23T22:00:17.642Z,18.67
2018-08-23T22:02:51.930Z,22.03
2018-08-23T22:05:26.129Z,15.97
2018-08-23T22:08:00.443Z,17.90
2018-08-23T22:10:34.773Z,18.97
2018-08-23T22:13:09.123Z,20.00
2018-08-23T22:15:46.348Z,23.47
2018-08-23T22:18:20.610Z,20.93
2018-08-23T22:20:54.999Z,17.53
2018-08-23T22:23:29.378Z,23.13
2018-08-23T22:26:03.726Z,18.20
2018-08-23T22:28:37.997Z,18.93
2018-08-23T22:31:12.279Z,16.97
2018-08-23T22:33:46.563Z,19.03
2018-08-23T22:36:20.874Z,17.67
2018-08-23T22:38:55.001Z,16.07
2018-08-23T22:41:29.207Z,18.33
2018-08-23T22:44:03.389Z,17.20
2018-08-23T22:46:37.604Z,16.50
2018-08-23T22:49:11.970Z,17.33
2018-08-23T22:51:46.151Z,16.27
2018-08-23T22:54:20.471Z,19.03
2018-08-23T22:56:54.710Z,17.57
2018-08-23T22:59:29.167Z,19.60
2018-08-23T23:02:03.422Z,15.63
2018-08-23T23:04:37.658Z,16.80
2018-08-23T23:07:12.015Z,16.07
2018-08-23T23:09:46.278Z,17.87
2018-08-23T23:12:20.595Z,17.70
2018-08-23T23:14:55.070Z,15.07
2018-08-23T23:17:29.301Z,15.13
2018-08-23T23:20:03.654Z,16.80
2018-08-23T23:22:37.982Z,18.23
2018-08-23T23:25:12.347Z,17.50
2018-08-23T23:27:46.752Z,16.90
2018-08-23T23:30:21.179Z,16.57
2018-08-23T23:32:55.558Z,16.60
2018-08-23T23:35:29.785Z,16.30
2018-08-23T23:38:04.205Z,14.93
2018-08-23T23:40:38.441Z,15.53
2018-08-23T23:43:12.715Z,16.87
2018-08-23T23:45:47.226Z,18.43
2018-08-23T23:48:21.629Z,15.37
2018-08-23T23:50:55.844Z,17.57
2018-08-23T23:53:30.090Z,15.83
2018-08-23T23:56:04.501Z,15.77
2018-08-23T23:58:38.786Z,16.40
